Time;durP1;ratioP1;P1;durP2;ratioP2;P2;SDS_P1;SDS_P2;PMS_P1;PMS_P2;Temp;Humidity;BMP_temperature;BMP_pressure;BME280_temperature;BME280_humidity;BME280_pressure;Samples;Min_cycle;Max_cycle;Signal;HPM_P1;HPM_P2
2021/06/12 00:03:13;;;;;;;12.90;11.63;;;21.10;95.20;;;;;;10493275;28;20307;-77
2021/06/12 00:08:15;;;;;;;10.50;9.80;;;21.00;95.60;;;;;;10493195;28;20640;-77
2021/06/12 00:13:16;;;;;;;10.17;9.40;;;21.00;96.30;;;;;;10492672;28;20221;-76
2021/06/12 00:18:19;;;;;;;10.43;9.70;;;21.00;96.40;;;;;;10492822;28;20288;-77
2021/06/12 00:23:21;;;;;;;9.30;8.70;;;20.90;96.90;;;;;;10491800;28;20224;-77
2021/06/12 00:28:23;;;;;;;9.93;9.23;;;20.90;96.40;;;;;;10492571;28;20234;-77
2021/06/12 00:33:26;;;;;;;11.30;10.40;;;20.80;96.10;;;;;;10494038;28;20546;-77
2021/06/12 00:38:27;;;;;;;9.73;9.03;;;20.80;97.00;;;;;;10498521;28;20679;-77
2021/06/12 00:43:29;;;;;;;10.70;9.70;;;20.70;97.10;;;;;;10499965;28;20319;-76
2021/06/12 00:48:32;;;;;;;10.90;10.00;;;20.70;97.60;;;;;;10499804;28;20283;-77
2021/06/12 00:53:41;;;;;;;10.33;9.53;;;20.60;97.50;;;;;;10500142;28;20266;-76
2021/06/12 00:58:43;;;;;;;12.10;11.10;;;20.50;96.80;;;;;;10501701;28;20238;-77
2021/06/12 01:03:46;;;;;;;11.40;10.20;;;20.50;97.20;;;;;;10501958;28;20263;-77
2021/06/12 01:08:48;;;;;;;11.93;10.93;;;20.40;98.60;;;;;;10504801;28;20319;-76
2021/06/12 01:14:02;;;;;;;12.50;11.50;;;20.30;98.20;;;;;;10500250;28;20576;-77
2021/06/12 01:19:21;;;;;;;11.70;10.70;;;20.30;98.70;;;;;;10498044;28;20211;-77
2021/06/12 01:24:51;;;;;;;11.67;10.60;;;20.20;99.30;;;;;;10500128;28;20280;-77
2021/06/12 01:30:12;;;;;;;12.03;11.03;;;20.20;99.30;;;;;;10499219;28;20620;-77
2021/06/12 01:35:18;;;;;;;10.53;9.77;;;20.20;99.30;;;;;;10497473;28;20192;-77
2021/06/12 01:40:23;;;;;;;12.20;11.20;;;20.10;99.70;;;;;;10497564;28;20220;-77
2021/06/12 01:45:27;;;;;;;11.03;10.13;;;20.10;99.70;;;;;;10498292;28;20220;-77
2021/06/12 01:50:29;;;;;;;11.40;10.40;;;20.10;99.90;;;;;;10496873;28;20721;-77
2021/06/12 01:55:32;;;;;;;11.90;11.00;;;20.10;99.90;;;;;;10497701;28;20203;-77
2021/06/12 02:00:37;;;;;;;14.87;13.50;;;20.00;99.90;;;;;;10497089;28;20735;-76
2021/06/12 02:05:39;;;;;;;14.63;12.40;;;20.00;99.90;;;;;;10496926;28;20303;-77
2021/06/12 02:10:42;;;;;;;15.23;11.70;;;20.00;99.90;;;;;;10496906;28;20383;-77
2021/06/12 02:15:51;;;;;;;11.80;10.83;;;19.90;99.90;;;;;;10496484;28;20333;-77
2021/06/12 02:20:53;;;;;;;10.70;9.90;;;19.90;99.90;;;;;;10497195;28;20397;-77
2021/06/12 02:25:55;;;;;;;10.50;9.80;;;19.90;99.90;;;;;;10496081;28;20223;-77
2021/06/12 02:31:03;;;;;;;11.37;10.47;;;19.90;99.90;;;;;;10496553;28;20220;-77
2021/06/12 02:36:05;;;;;;;10.30;9.60;;;19.90;99.90;;;;;;10495517;28;20279;-77
2021/06/12 02:41:07;;;;;;;10.77;9.97;;;19.80;99.90;;;;;;10495957;28;20631;-77
2021/06/12 02:46:13;;;;;;;10.37;9.57;;;19.70;99.90;;;;;;10494469;28;20287;-76
2021/06/12 02:51:16;;;;;;;10.93;9.90;;;19.70;99.90;;;;;;10499194;28;20232;-77
2021/06/12 02:56:19;;;;;;;11.23;10.37;;;19.60;99.90;;;;;;10493259;28;20220;-77
2021/06/12 03:01:24;;;;;;;10.83;10.13;;;19.60;99.90;;;;;;10494452;28;20625;-76
2021/06/12 03:06:27;;;;;;;10.00;9.30;;;19.60;99.90;;;;;;10494777;28;20201;-77
2021/06/12 03:11:30;;;;;;;10.23;9.53;;;19.60;99.90;;;;;;10494699;28;20224;-76
2021/06/12 03:16:34;;;;;;;10.47;9.77;;;19.60;99.90;;;;;;10495017;28;20280;-77
2021/06/12 03:21:37;;;;;;;13.30;12.07;;;19.50;99.90;;;;;;10494850;28;20270;-77
2021/06/12 03:26:38;;;;;;;9.30;8.70;;;19.50;99.90;;;;;;10494087;28;20200;-77
2021/06/12 03:31:42;;;;;;;11.10;10.20;;;19.40;99.90;;;;;;10494197;28;20628;-77
2021/06/12 03:36:45;;;;;;;11.13;10.33;;;19.50;99.90;;;;;;10493663;28;20354;-76
2021/06/12 03:41:47;;;;;;;10.50;9.73;;;19.40;99.90;;;;;;10494285;28;20225;-77
2021/06/12 03:46:51;;;;;;;10.17;9.37;;;19.40;99.90;;;;;;10492049;28;20208;-76
2021/06/12 03:51:53;;;;;;;8.30;7.80;;;19.30;99.90;;;;;;10494121;28;20232;-77
2021/06/12 03:56:55;;;;;;;10.60;9.80;;;19.30;99.90;;;;;;10492950;28;20208;-77
2021/06/12 04:01:59;;;;;;;8.83;8.23;;;19.30;99.90;;;;;;10493355;28;20286;-76
2021/06/12 04:07:01;;;;;;;10.13;9.43;;;19.40;99.90;;;;;;10494984;28;20200;-76
2021/06/12 04:12:03;;;;;;;8.80;8.20;;;19.40;99.90;;;;;;10501625;28;20303;-77
2021/06/12 04:17:06;;;;;;;8.77;8.17;;;19.40;99.90;;;;;;10501171;28;20231;-76
2021/06/12 04:22:08;;;;;;;9.03;8.40;;;19.40;99.90;;;;;;10501357;28;20220;-77
2021/06/12 04:27:10;;;;;;;8.37;7.87;;;19.50;99.90;;;;;;10500759;28;20203;-76
2021/06/12 04:32:13;;;;;;;9.33;8.63;;;19.50;99.90;;;;;;10501087;28;20307;-77
2021/06/12 04:37:15;;;;;;;9.83;9.13;;;19.60;99.90;;;;;;10498681;28;20644;-77
2021/06/12 04:42:16;;;;;;;11.30;10.40;;;19.60;99.90;;;;;;10504587;28;20213;-77
2021/06/12 04:47:19;;;;;;;11.00;9.90;;;19.70;99.90;;;;;;10501282;28;20227;-76
2021/06/12 04:52:21;;;;;;;9.20;8.60;;;19.90;99.90;;;;;;10499702;28;20227;-78
2021/06/12 04:57:22;;;;;;;9.57;8.77;;;20.00;99.90;;;;;;10500070;28;20283;-77
2021/06/12 05:02:25;;;;;;;8.20;7.70;;;20.10;99.90;;;;;;10481678;28;20224;-78
2021/06/12 05:07:27;;;;;;;9.00;8.30;;;20.10;99.90;;;;;;10500501;28;20288;-78
2021/06/12 05:12:29;;;;;;;10.80;10.00;;;20.00;99.90;;;;;;10499854;28;20294;-78
2021/06/12 05:17:32;;;;;;;10.60;9.87;;;20.10;99.90;;;;;;10480666;28;20745;-78
2021/06/12 05:22:34;;;;;;;10.00;9.20;;;20.20;99.90;;;;;;10500377;28;20221;-78
2021/06/12 05:27:35;;;;;;;11.10;10.20;;;20.30;99.90;;;;;;10499089;28;20255;-78
2021/06/12 05:32:38;;;;;;;11.37;10.57;;;20.40;99.90;;;;;;10499281;28;20271;-78
2021/06/12 05:37:40;;;;;;;10.30;9.50;;;20.50;99.90;;;;;;10497676;28;20208;-78
2021/06/12 05:42:42;;;;;;;10.50;9.80;;;20.60;99.90;;;;;;10499090;28;20854;-78
2021/06/12 05:47:45;;;;;;;11.17;10.17;;;20.80;99.90;;;;;;10497141;28;20664;-78
2021/06/12 05:52:46;;;;;;;10.07;9.27;;;21.00;99.90;;;;;;10497007;28;20224;-78
2021/06/12 05:57:48;;;;;;;9.00;8.30;;;21.10;99.90;;;;;;10497994;28;20616;-78
2021/06/12 06:02:51;;;;;;;9.00;8.40;;;21.30;99.90;;;;;;10479777;28;20228;-78
2021/06/12 06:07:53;;;;;;;9.53;8.73;;;21.40;99.90;;;;;;10497967;28;20254;-78
2021/06/12 06:12:54;;;;;;;9.20;8.40;;;21.60;99.90;;;;;;10496359;28;20251;-78
2021/06/12 06:17:57;;;;;;;9.30;8.60;;;21.60;99.90;;;;;;10496087;28;20203;-78
2021/06/12 06:22:59;;;;;;;10.83;10.03;;;21.70;99.90;;;;;;10497968;28;20216;-78
2021/06/12 06:28:01;;;;;;;10.20;9.20;;;21.80;99.90;;;;;;10496057;28;20204;-78
2021/06/12 06:33:04;;;;;;;10.27;9.27;;;21.90;99.90;;;;;;10479374;28;20220;-76
2021/06/12 06:38:06;;;;;;;10.00;9.20;;;22.00;99.90;;;;;;10501895;28;20227;-77
2021/06/12 06:43:11;;;;;;;10.17;9.37;;;22.10;99.90;;;;;;10495212;28;20269;-78
2021/06/12 06:48:16;;;;;;;9.87;9.07;;;22.30;99.90;;;;;;10495484;28;20210;-77
2021/06/12 06:53:17;;;;;;;9.47;8.87;;;22.60;99.90;;;;;;10494845;28;20232;-78
2021/06/12 06:58:19;;;;;;;11.13;10.13;;;22.90;99.90;;;;;;10481871;28;20197;-76
2021/06/12 07:03:22;;;;;;;9.67;8.87;;;23.10;99.90;;;;;;10486773;28;20217;-78
2021/06/12 07:08:24;;;;;;;9.30;8.60;;;23.50;99.40;;;;;;10460652;28;20626;-77
2021/06/12 07:13:26;;;;;;;9.80;9.03;;;23.80;99.40;;;;;;10468108;28;20695;-78
2021/06/12 07:18:29;;;;;;;10.37;9.40;;;24.00;99.10;;;;;;10483767;28;20688;-77
2021/06/12 07:23:31;;;;;;;9.13;8.43;;;24.40;99.20;;;;;;10481833;28;20598;-79
2021/06/12 07:28:33;;;;;;;9.07;8.17;;;24.90;98.30;;;;;;10480302;28;20458;-76
2021/06/12 07:33:36;;;;;;;7.70;7.10;;;25.30;97.20;;;;;;10459967;28;20224;-77
2021/06/12 07:38:38;;;;;;;9.07;8.00;;;25.70;95.40;;;;;;10471459;28;20212;-78
2021/06/12 07:43:39;;;;;;;8.00;7.20;;;26.20;94.80;;;;;;10472141;28;20596;-76
2021/06/12 07:48:42;;;;;;;7.17;6.57;;;26.50;95.00;;;;;;10460917;28;20201;-78
2021/06/12 07:53:44;;;;;;;8.53;6.17;;;27.00;93.80;;;;;;10465564;28;20225;-78
2021/06/12 07:58:46;;;;;;;6.70;6.30;;;27.60;92.70;;;;;;10472523;28;20217;-78
2021/06/12 08:03:49;;;;;;;6.93;6.27;;;28.10;92.60;;;;;;10472367;28;20229;-77
2021/06/12 08:08:51;;;;;;;8.20;6.60;;;28.40;91.60;;;;;;10478828;28;20205;-78
2021/06/12 08:13:53;;;;;;;7.60;7.03;;;28.70;91.10;;;;;;10451737;28;20740;-78
2021/06/12 08:18:56;;;;;;;6.57;6.17;;;29.00;90.30;;;;;;10472314;28;20622;-78
2021/06/12 08:24:00;;;;;;;7.20;6.60;;;29.00;87.60;;;;;;10458099;28;20252;-79
2021/06/12 08:29:02;;;;;;;6.87;6.37;;;28.90;85.50;;;;;;10464987;28;20219;-77
2021/06/12 08:34:06;;;;;;;6.93;6.20;;;29.30;86.50;;;;;;10470484;28;20217;-76
2021/06/12 08:39:08;;;;;;;6.97;6.20;;;29.50;83.10;;;;;;10466595;28;20661;-78
2021/06/12 08:44:11;;;;;;;6.90;6.40;;;29.10;84.60;;;;;;10470511;28;20237;-78
2021/06/12 08:49:15;;;;;;;7.87;7.27;;;29.20;84.90;;;;;;10471364;28;20247;-78
2021/06/12 08:54:19;;;;;;;6.53;6.03;;;29.80;83.30;;;;;;10472627;28;20277;-77
2021/06/12 08:59:22;;;;;;;5.90;5.50;;;30.40;78.40;;;;;;10463511;28;20197;-77
2021/06/12 09:04:43;;;;;;;5.43;5.10;;;30.60;78.70;;;;;;10463478;28;20263;-77
2021/06/12 09:09:45;;;;;;;7.40;5.43;;;30.20;78.50;;;;;;10462345;28;20207;-77
2021/06/12 09:15:09;;;;;;;6.80;6.20;;;30.10;79.70;;;;;;10476237;28;20216;-78
2021/06/12 09:20:19;;;;;;;10.10;4.83;;;30.50;78.90;;;;;;10500013;28;20211;-77
2021/06/12 09:25:37;;;;;;;4.30;4.00;;;31.00;75.80;;;;;;10495942;28;20228;-77
2021/06/12 09:30:38;;;;;;;3.73;3.27;;;31.60;74.50;;;;;;10498215;28;20236;-77
2021/06/12 09:35:43;;;;;;;2.87;2.67;;;31.80;69.50;;;;;;10492599;28;20188;-77
2021/06/12 09:40:45;;;;;;;3.30;3.00;;;32.00;67.00;;;;;;10498923;28;20223;-78
2021/06/12 09:45:46;;;;;;;2.80;2.57;;;32.90;63.80;;;;;;10490145;28;20213;-78
2021/06/12 09:51:09;;;;;;;4.07;3.13;;;33.90;61.60;;;;;;10482155;28;20220;-78
2021/06/12 09:56:11;;;;;;;3.40;2.60;;;35.00;57.90;;;;;;10498361;28;20203;-78
2021/06/12 10:01:14;;;;;;;2.70;2.50;;;35.30;56.90;;;;;;10498837;28;20588;-78
2021/06/12 10:06:21;;;;;;;3.13;2.50;;;36.30;55.10;;;;;;10490689;28;20228;-78
2021/06/12 10:11:26;;;;;;;2.67;2.57;;;36.90;54.40;;;;;;10480556;28;20279;-78
2021/06/12 10:16:31;;;;;;;2.83;2.63;;;37.40;53.00;;;;;;10497813;28;20196;-78
2021/06/12 10:21:34;;;;;;;2.53;2.42;;;38.80;51.80;;;;;;10483497;28;20270;-78
2021/06/12 10:26:37;;;;;;;4.50;3.17;;;38.80;48.60;;;;;;10476227;28;20219;-77
2021/06/12 10:31:43;;;;;;;3.40;3.10;;;37.00;48.90;;;;;;10476826;28;20570;-77
2021/06/12 10:36:59;;;;;;;3.20;3.00;;;35.20;51.70;;;;;;10476120;28;20680;-77
2021/06/12 10:42:17;;;;;;;4.47;4.13;;;33.80;53.10;;;;;;10485654;28;20707;-78
2021/06/12 10:47:38;;;;;;;3.90;3.70;;;32.50;55.30;;;;;;10495173;28;20200;-78
2021/06/12 10:52:44;;;;;;;3.47;3.17;;;31.30;56.60;;;;;;10484966;28;20308;-77
2021/06/12 10:57:45;;;;;;;3.60;3.40;;;30.50;56.80;;;;;;10466872;28;20730;-79
2021/06/12 11:02:55;;;;;;;3.50;3.30;;;29.90;60.10;;;;;;10473468;28;20233;-77
2021/06/12 11:08:16;;;;;;;3.73;3.50;;;29.50;59.90;;;;;;10468057;28;20197;-78
2021/06/12 11:13:22;;;;;;;3.40;3.07;;;29.30;60.60;;;;;;10475337;28;20652;-78
2021/06/12 11:18:24;;;;;;;3.70;3.50;;;29.00;59.00;;;;;;10459513;28;20211;-78
2021/06/12 11:23:43;;;;;;;3.57;3.37;;;28.80;62.10;;;;;;10466781;28;20765;-79
2021/06/12 11:28:47;;;;;;;3.90;3.60;;;28.60;63.00;;;;;;10459579;28;20208;-78
2021/06/12 11:34:25;;;;;;;4.63;4.27;;;28.40;63.80;;;;;;10467521;28;20217;-78
2021/06/12 11:39:28;;;;;;;5.30;4.00;;;28.40;65.20;;;;;;10461122;28;20208;-78
2021/06/12 11:44:29;;;;;;;4.83;4.50;;;28.40;65.20;;;;;;10478488;28;20228;-78
2021/06/12 11:49:31;;;;;;;4.53;4.17;;;28.50;64.40;;;;;;10472732;28;20224;-78
2021/06/12 11:54:34;;;;;;;4.50;4.20;;;28.50;63.40;;;;;;10473467;28;20259;-79
2021/06/12 11:59:36;;;;;;;4.07;3.70;;;28.60;62.70;;;;;;10476384;28;20627;-78
2021/06/12 12:04:39;;;;;;;3.80;3.50;;;28.40;62.80;;;;;;10472453;28;20233;-78
2021/06/12 12:09:44;;;;;;;3.77;3.50;;;28.10;60.00;;;;;;10458982;28;20205;-76
2021/06/12 12:14:47;;;;;;;3.60;3.40;;;27.90;60.30;;;;;;10469265;28;20247;-78
2021/06/12 12:19:56;;;;;;;3.30;3.10;;;27.80;62.90;;;;;;10473148;28;20618;-80
2021/06/12 12:25:02;;;;;;;3.60;3.30;;;27.70;62.00;;;;;;10461212;28;20316;-79
2021/06/12 12:30:05;;;;;;;3.17;2.97;;;27.70;60.90;;;;;;10479969;28;20277;-79
2021/06/12 12:35:11;;;;;;;3.10;2.90;;;27.80;62.90;;;;;;10476048;28;20652;-79
2021/06/12 12:40:22;;;;;;;2.80;2.60;;;27.70;62.90;;;;;;10477510;28;20385;-79
2021/06/12 12:45:24;;;;;;;3.83;3.13;;;27.60;61.60;;;;;;10469305;28;20270;-78
2021/06/12 12:50:29;;;;;;;3.77;3.47;;;27.50;62.30;;;;;;10492228;28;20236;-80
2021/06/12 12:55:32;;;;;;;2.70;2.60;;;27.50;63.00;;;;;;10490282;28;20280;-79
2021/06/12 13:00:36;;;;;;;3.07;2.87;;;27.60;63.80;;;;;;10474807;28;20217;-79
2021/06/12 13:05:39;;;;;;;2.83;2.63;;;27.70;62.90;;;;;;10491466;28;20220;-79
2021/06/12 13:10:48;;;;;;;2.77;2.57;;;27.70;62.50;;;;;;10477458;28;20267;-78
2021/06/12 13:15:55;;;;;;;3.13;2.80;;;27.60;60.90;;;;;;10469415;28;20197;-79
2021/06/12 13:21:11;;;;;;;2.90;2.70;;;27.50;61.90;;;;;;10485430;28;20266;-79
2021/06/12 13:26:17;;;;;;;2.20;2.10;;;27.50;62.70;;;;;;10469953;28;20679;-80
2021/06/12 13:31:21;;;;;;;2.60;2.50;;;27.60;62.10;;;;;;10477459;28;20704;-79
2021/06/12 13:36:23;;;;;;;2.40;2.17;;;27.50;63.60;;;;;;10497044;28;20696;-79
2021/06/12 13:41:26;;;;;;;2.50;2.30;;;27.60;60.10;;;;;;10485598;28;20225;-79
2021/06/12 13:46:28;;;;;;;2.20;2.10;;;27.60;61.20;;;;;;10471427;28;20252;-79
2021/06/12 13:51:30;;;;;;;2.13;2.03;;;27.70;60.10;;;;;;10489589;28;20220;-79
2021/06/12 13:56:33;;;;;;;2.67;2.57;;;27.70;60.70;;;;;;10476691;28;20220;-79
2021/06/12 14:01:34;;;;;;;2.53;2.27;;;27.60;59.60;;;;;;10492367;28;20716;-78
2021/06/12 14:06:36;;;;;;;2.53;2.20;;;27.50;59.40;;;;;;10485719;28;20693;-77
2021/06/12 14:11:39;;;;;;;2.20;2.00;;;27.30;59.30;;;;;;10458924;28;20229;-76
2021/06/12 14:16:41;;;;;;;2.20;1.90;;;27.20;58.70;;;;;;10475272;28;20271;-79
2021/06/12 14:21:42;;;;;;;2.00;1.90;;;27.10;59.70;;;;;;10478015;28;20217;-80
2021/06/12 14:26:48;;;;;;;2.87;1.80;;;27.00;59.90;;;;;;10485113;28;20634;-78
2021/06/12 14:31:50;;;;;;;2.23;2.10;;;27.00;59.10;;;;;;10468260;28;20217;-77
2021/06/12 14:36:52;;;;;;;2.13;2.03;;;26.90;60.60;;;;;;10468287;28;20251;-78
2021/06/12 14:41:56;;;;;;;2.83;2.60;;;26.90;61.70;;;;;;10463534;28;20224;-78
2021/06/12 14:46:58;;;;;;;2.60;2.47;;;26.90;61.80;;;;;;10463874;28;20660;-77
2021/06/12 14:52:00;;;;;;;2.20;2.10;;;26.90;63.20;;;;;;10442490;28;20258;-75
2021/06/12 14:57:03;;;;;;;2.13;2.03;;;26.90;60.40;;;;;;10467776;28;20215;-77
2021/06/12 15:02:05;;;;;;;3.27;2.50;;;26.90;59.10;;;;;;10469290;28;20365;-78
2021/06/12 15:07:06;;;;;;;2.20;2.10;;;26.90;60.80;;;;;;10469056;28;20307;-78
2021/06/12 15:12:10;;;;;;;5.00;1.70;;;26.90;60.30;;;;;;10476540;28;20303;-78
2021/06/12 15:17:11;;;;;;;1.70;1.60;;;26.80;59.80;;;;;;10454510;28;20255;-78
2021/06/12 15:22:13;;;;;;;4.20;2.77;;;26.70;60.70;;;;;;10469767;28;20220;-77
2021/06/12 15:27:16;;;;;;;2.33;2.13;;;26.80;62.80;;;;;;10473063;28;20236;-78
2021/06/12 15:32:18;;;;;;;2.77;2.57;;;26.70;63.20;;;;;;10476118;28;20240;-78
2021/06/12 15:37:20;;;;;;;1.83;1.73;;;26.70;60.50;;;;;;10480210;28;20193;-78
2021/06/12 15:42:26;;;;;;;2.73;2.53;;;26.70;58.90;;;;;;10474118;28;20245;-78
2021/06/12 15:47:28;;;;;;;1.80;1.70;;;26.60;60.90;;;;;;10468609;28;20722;-78
2021/06/12 15:52:30;;;;;;;2.60;2.07;;;26.50;61.40;;;;;;10484626;28;20255;-77
2021/06/12 15:57:33;;;;;;;1.70;1.60;;;26.40;59.10;;;;;;10480869;28;20291;-79
2021/06/12 16:02:35;;;;;;;1.40;1.40;;;26.30;60.30;;;;;;10480527;28;20689;-79
2021/06/12 16:07:37;;;;;;;2.53;1.60;;;26.20;61.40;;;;;;10484244;28;20636;-79
2021/06/12 16:12:41;;;;;;;1.30;1.30;;;26.10;62.00;;;;;;10490195;28;20260;-76
2021/06/12 16:17:43;;;;;;;1.90;1.80;;;26.10;62.30;;;;;;10483370;28;20204;-78
2021/06/12 16:22:45;;;;;;;3.23;2.17;;;26.00;62.80;;;;;;10463862;28;20303;-78
2021/06/12 16:27:48;;;;;;;2.23;1.60;;;26.00;63.20;;;;;;10489090;28;20224;-78
2021/06/12 16:32:50;;;;;;;1.50;1.40;;;26.00;63.20;;;;;;10484838;28;20303;-79
2021/06/12 16:37:52;;;;;;;2.30;2.10;;;25.90;63.70;;;;;;10479049;28;20201;-78
2021/06/12 16:42:55;;;;;;;1.80;1.70;;;25.90;66.10;;;;;;10482411;28;20252;-77
2021/06/12 16:47:57;;;;;;;1.23;1.23;;;25.80;63.80;;;;;;10462863;28;20276;-78
2021/06/12 16:53:00;;;;;;;3.90;1.90;;;25.70;64.40;;;;;;10482540;28;20269;-78
2021/06/12 16:58:20;;;;;;;2.63;2.43;;;25.70;66.30;;;;;;10503519;28;20287;-78
2021/06/12 17:03:22;;;;;;;2.10;1.90;;;25.60;64.60;;;;;;10502936;28;20285;-78
2021/06/12 17:08:24;;;;;;;2.50;2.30;;;25.60;65.80;;;;;;10502960;28;20224;-78
2021/06/12 17:13:27;;;;;;;2.10;2.00;;;25.60;64.00;;;;;;10501170;28;20220;-78
2021/06/12 17:18:29;;;;;;;2.17;2.07;;;25.60;65.30;;;;;;10501145;28;20425;-78
2021/06/12 17:23:30;;;;;;;1.67;1.57;;;25.60;66.30;;;;;;10501740;28;20303;-78
2021/06/12 17:28:33;;;;;;;1.90;1.80;;;25.60;65.70;;;;;;10500226;28;20264;-78
2021/06/12 17:33:35;;;;;;;2.47;2.27;;;25.60;65.30;;;;;;10501535;28;20273;-78
2021/06/12 17:38:37;;;;;;;3.20;3.00;;;25.60;67.10;;;;;;10501330;28;20204;-78
2021/06/12 17:43:40;;;;;;;4.20;3.10;;;25.50;69.60;;;;;;10503840;28;20243;-77
2021/06/12 17:48:42;;;;;;;3.30;3.10;;;25.30;69.50;;;;;;10504963;28;20284;-78
2021/06/12 17:53:43;;;;;;;7.30;3.30;;;25.10;69.60;;;;;;10500718;28;20346;-77
2021/06/12 17:58:47;;;;;;;3.70;3.40;;;25.00;71.00;;;;;;10501095;28;20258;-78
2021/06/12 18:03:48;;;;;;;3.67;3.37;;;24.80;70.40;;;;;;10499390;28;20223;-78
2021/06/12 18:08:50;;;;;;;5.00;3.83;;;24.70;71.20;;;;;;10500572;28;20196;-78
2021/06/12 18:13:53;;;;;;;3.90;3.60;;;24.60;71.20;;;;;;10500522;28;20246;-78
2021/06/12 18:18:57;;;;;;;3.53;3.30;;;24.50;72.10;;;;;;10499998;28;20279;-77
2021/06/12 18:24:01;;;;;;;4.47;4.17;;;24.30;72.90;;;;;;10500363;28;20220;-78
2021/06/12 18:29:04;;;;;;;3.80;3.50;;;24.20;72.50;;;;;;10493351;28;20192;-77
2021/06/12 18:34:06;;;;;;;4.10;3.80;;;24.20;73.40;;;;;;10499730;28;20220;-78
2021/06/12 18:39:09;;;;;;;3.57;3.20;;;24.10;73.50;;;;;;10497031;28;20295;-78
2021/06/12 18:44:12;;;;;;;4.50;4.20;;;24.00;74.00;;;;;;10497470;28;20311;-78
2021/06/12 18:49:14;;;;;;;3.83;3.53;;;23.90;73.80;;;;;;10498575;28;20283;-78
2021/06/12 18:54:15;;;;;;;5.20;3.70;;;23.90;73.20;;;;;;10499042;28;20266;-78
2021/06/12 18:59:19;;;;;;;4.20;3.90;;;23.80;74.60;;;;;;10496984;28;20200;-78
2021/06/12 19:04:20;;;;;;;5.73;5.17;;;23.70;76.90;;;;;;10498648;28;20237;-78
2021/06/12 19:09:22;;;;;;;4.30;4.00;;;23.60;74.80;;;;;;10498635;28;20224;-78
2021/06/12 19:14:25;;;;;;;4.10;3.87;;;23.50;74.70;;;;;;10496727;28;20248;-77
2021/06/12 19:19:34;;;;;;;5.63;5.20;;;23.40;75.30;;;;;;10497942;28;20197;-78
2021/06/12 19:24:36;;;;;;;4.60;4.20;;;23.20;75.70;;;;;;10472830;28;20221;-78
2021/06/12 19:29:39;;;;;;;4.97;4.53;;;23.20;76.60;;;;;;10497861;28;20224;-78
2021/06/12 19:34:45;;;;;;;4.77;4.37;;;23.10;76.80;;;;;;10500317;28;20240;-77
2021/06/12 19:39:47;;;;;;;4.80;4.50;;;23.00;77.90;;;;;;10484481;28;20205;-78
2021/06/12 19:44:50;;;;;;;5.50;4.97;;;22.90;77.10;;;;;;10497550;28;20228;-79
2021/06/12 19:49:51;;;;;;;4.87;4.53;;;22.90;77.00;;;;;;10497162;28;20726;-78
2021/06/12 19:54:53;;;;;;;4.33;4.03;;;22.80;78.70;;;;;;10498717;28;20576;-78
2021/06/12 19:59:56;;;;;;;4.67;4.27;;;22.80;80.60;;;;;;10497059;28;20729;-78
2021/06/12 20:04:57;;;;;;;6.37;4.77;;;22.80;79.40;;;;;;10495440;28;20224;-78
2021/06/12 20:09:59;;;;;;;5.03;4.53;;;22.80;80.40;;;;;;10494828;28;20216;-78
2021/06/12 20:15:02;;;;;;;5.73;4.27;;;22.80;80.10;;;;;;10494160;28;20226;-78
2021/06/12 20:20:06;;;;;;;6.53;5.00;;;22.90;80.70;;;;;;10496041;28;20647;-78
2021/06/12 20:25:09;;;;;;;5.27;4.43;;;22.90;82.30;;;;;;10496140;28;20234;-78
2021/06/12 20:30:13;;;;;;;5.63;5.23;;;22.90;81.40;;;;;;10495500;28;20205;-78
2021/06/12 20:35:15;;;;;;;5.43;5.03;;;22.90;84.40;;;;;;10495962;28;20224;-78
2021/06/12 20:40:17;;;;;;;5.17;4.67;;;23.00;82.50;;;;;;10481351;28;20195;-77
2021/06/12 20:45:20;;;;;;;5.53;5.13;;;22.90;83.80;;;;;;10495846;28;20354;-78
2021/06/12 20:50:23;;;;;;;6.23;5.63;;;22.90;83.60;;;;;;10500274;28;20761;-78
2021/06/12 20:55:28;;;;;;;5.90;5.40;;;23.00;84.10;;;;;;10502435;28;20663;-78
2021/06/12 21:00:32;;;;;;;5.13;4.73;;;23.00;84.60;;;;;;10502825;28;20661;-78
2021/06/12 21:05:33;;;;;;;5.53;5.03;;;22.90;82.30;;;;;;10503467;28;20221;-78
2021/06/12 21:10:35;;;;;;;5.80;5.40;;;22.90;82.00;;;;;;10503609;28;20299;-78
2021/06/12 21:15:38;;;;;;;5.97;5.57;;;22.90;84.50;;;;;;10502258;28;20243;-78
2021/06/12 21:20:40;;;;;;;4.73;4.43;;;22.90;84.80;;;;;;10504474;28;20573;-78
2021/06/12 21:25:41;;;;;;;5.67;5.00;;;22.90;87.30;;;;;;10498639;28;20282;-78
2021/06/12 21:30:44;;;;;;;5.40;5.00;;;22.90;84.60;;;;;;10506052;28;20257;-79
2021/06/12 21:35:46;;;;;;;5.60;5.17;;;22.80;81.50;;;;;;10504304;28;20200;-78
2021/06/12 21:40:48;;;;;;;5.17;4.77;;;22.80;81.60;;;;;;10506203;28;20637;-78
2021/06/12 21:45:54;;;;;;;5.93;5.50;;;22.70;84.30;;;;;;10505218;28;20327;-79
2021/06/12 21:50:57;;;;;;;5.60;5.07;;;22.60;83.80;;;;;;10505244;28;20311;-78
2021/06/12 21:55:59;;;;;;;5.97;5.13;;;22.60;84.50;;;;;;10505317;28;20224;-78
2021/06/12 22:01:06;;;;;;;5.63;5.23;;;22.60;82.80;;;;;;10502489;28;20220;-78
2021/06/12 22:06:09;;;;;;;5.60;5.20;;;22.60;81.80;;;;;;10499967;28;20308;-78
2021/06/12 22:11:11;;;;;;;8.50;7.70;;;22.50;84.70;;;;;;10499673;28;20307;-78
2021/06/12 22:16:14;;;;;;;6.27;5.73;;;22.40;83.60;;;;;;10499367;28;20763;-78
2021/06/12 22:21:18;;;;;;;5.30;5.00;;;22.40;83.30;;;;;;10499237;28;20231;-78
2021/06/12 22:26:20;;;;;;;5.50;5.10;;;22.30;85.60;;;;;;10498679;28;20274;-78
2021/06/12 22:31:23;;;;;;;5.63;5.23;;;22.20;82.90;;;;;;10497914;28;20775;-78
2021/06/12 22:36:24;;;;;;;6.67;6.00;;;22.20;82.50;;;;;;10500011;28;20200;-78
2021/06/12 22:41:28;;;;;;;6.73;6.23;;;22.20;81.70;;;;;;10499199;28;20212;-78
2021/06/12 22:46:31;;;;;;;7.27;6.57;;;22.10;83.10;;;;;;10498432;28;20220;-78
2021/06/12 22:51:35;;;;;;;7.63;6.93;;;22.00;82.60;;;;;;10499406;28;20227;-77
2021/06/12 22:56:37;;;;;;;6.53;6.03;;;22.00;79.20;;;;;;10497450;28;20284;-77
2021/06/12 23:01:40;;;;;;;6.70;6.10;;;21.90;83.00;;;;;;10498945;28;20535;-77
2021/06/12 23:06:41;;;;;;;6.90;6.37;;;21.80;81.70;;;;;;10497657;28;20220;-77
2021/06/12 23:11:43;;;;;;;7.03;6.50;;;21.70;81.90;;;;;;10497200;28;20250;-77
2021/06/12 23:16:46;;;;;;;7.17;6.57;;;21.70;82.70;;;;;;10504185;28;20193;-77
2021/06/12 23:21:48;;;;;;;8.30;6.90;;;21.60;80.40;;;;;;10506143;28;20228;-77
2021/06/12 23:26:49;;;;;;;7.40;6.80;;;21.60;79.70;;;;;;10501284;28;20262;-77
2021/06/12 23:31:52;;;;;;;7.33;6.83;;;21.50;79.80;;;;;;10499577;28;20279;-77
2021/06/12 23:36:55;;;;;;;7.30;6.80;;;21.40;81.90;;;;;;10501342;28;20192;-78
2021/06/12 23:41:56;;;;;;;7.60;7.00;;;21.40;82.30;;;;;;10500506;28;20251;-77
2021/06/12 23:46:59;;;;;;;6.87;6.37;;;21.30;81.90;;;;;;10496902;28;20224;-77
2021/06/12 23:52:02;;;;;;;7.77;7.10;;;21.30;83.70;;;;;;10496162;28;20224;-77
2021/06/12 23:57:04;;;;;;;7.30;6.80;;;21.20;81.40;;;;;;10496802;28;20202;-76
